SWDO2: Cottonwood Ck, Seward

Data processed at Sun Apr 30 2017 22:43


All information presented herein is the property of the government of the United States of America and may be revised or deleted at any time without prior notice.
Dissemination of this information without the expressed written consent of the Public Affairs Office, Tulsa District U.S. Army Corps of Engineers is strictly prohibited.
These data are gathered electronically and, as presented, have not undergone any form of quality control. These data are not guaranteed to be valid or correct.
Go to home page.
Go to station list.
Go to station map.

Upstream stations:

Downstream station:
Previous Day
Next Day
Current Day
    
SHEF ID:       SWDO2     Cottonwood Creek near Seward, OK
STATION TYPE:  

               PRECIP     STAGE  RIV-FLOW  BAT-LOAD
                   in        ft       cfs      volt
              Ccp-Rev   Ccp-Rev   Ccp-Rev   Ccp-Rev
(US/Central)
04/30 00:00      0.00     29.49     10391     12.41
04/30 01:00      0.00     30.71     11560     12.41
04/30 02:00      0.00     31.64     12482     12.41
04/30 03:00      0.00     32.41     13301     12.41
04/30 04:00      0.00     32.79     13716     12.41
04/30 05:00      0.00     33.00     13949     12.41
04/30 06:00      0.00     33.00     13949     12.41
04/30 07:00      0.00     32.89     13827     12.41
04/30 08:00      0.00     32.68     13595     12.41
04/30 09:00      0.00     32.39     13279     12.57
04/30 10:00      0.00     32.02     12882     13.21
04/30 11:00      0.00     31.53     12371     13.21
04/30 12:00      0.00     30.97     11814     13.60
04/30 13:00      0.00     30.28     11148     13.60
04/30 14:00      0.00     29.40     10306     13.84
04/30 15:00      0.00     28.47      9470     13.76
04/30 16:00      0.00     27.43      8647     13.76
04/30 17:00      0.00     26.36      7842     13.76
04/30 18:00      0.00     25.25      7116     13.68
04/30 19:00      0.00     24.22      6501     13.60
04/30 20:00      0.00     23.13      5880     13.13
04/30 21:00      0.00     22.30      5426     12.65
04/30 22:00      0.00     21.45      4981     12.57
04/30 23:00      ----      ----      ----      ----